Weather at UNFICYP OP138 Heliport

Public forecast

Using degrees Celsius for public forecast. Weather courtesy of forecast.io.

Closest aviation weather report (METAR) to UNFICYP OP138 Heliport

Closest report is Larnaca International Airport, 16.6 nm (30.7 km) SW.

2024/07/17 12:00 (retrieved 26 minutes ago)

LCLK 171200Z 21020KT 9999 FEW025 34/25 Q1005 NOSIG

Closest aviation forecast (TAF) to UNFICYP OP138 Heliport

Closest forecast is Larnaca International Airport, 16.6 nm (30.7 km) SW.

2024/07/17 12:36 (retrieved 0 seconds ago)

TAF TAF LCLK 171130Z 1712/1812 22020KT 9999 FEW025 BECMG 1716/1720 24007KT PROB30 TEMPO 1722/1806 5000 BR BKN007 BECMG 1807/1811 22018KT